首页
METAR-TAF:

METAR-TAF

机场 :

奧格斯堡機場

奥格斯堡, 德国

纬度: 48-26N, 经度: 010-56E, 海拔: 461米

当前天气观测

该预报发布于29分钟前的21:20 UTC
风速1节,风向多变
温度 4°C
湿度 81%
气压 1016 hPa
能见度10公里或以上

METAR: EDMA 282120Z AUTO VRB01KT 9999 // FEW079/// 04/01 Q1016

时间: 22:49 (21:49 UTC)

预报

该预报发布于4小时和49分钟前的17:00 UTC
预报有效从28日的 18点(UTC)到 29日的 03点(UTC)
风速3节,风向
能见度10公里或以上
1500米以下无云,无积雨云

TAF: EDMA 281700Z 2818/2903 36003KT CAVOK

超过4000个机场的气象观测和天气预报(METAR&TAF报告)。

可查询的气象台以黄色和红色小点在地图上表示。

将鼠标移到小点上方,可查看气象台名称。

然后点击查看天气观测和预报。

如需切换地图:点击带黑十字的绿色按钮放大地图;点击带横线的绿色按钮缩小地图;或者点击绿色箭头查看邻近地区的地图。


METAR-TAF: